Breen, Colorado
Current Conditions -  °F | °C
As of 4:53 PM on Saturday 20 Dec 2014 (Local Time) from KDRO Reporting Station
Clear Clear  
Wind Chill: 34°   Ceiling: Unl
Heat Index: 34°   Visibility: 10mi
Dew Point: 26°   Wind: 0mph
Humidity: 73%   Direction: NA
Pressure: 30.09"   Gusts: NA
Location:  37.1547°N, 108.155°W
Report Text: KDRO 202353Z AUTO 00000KT 10SM CLR 01/M03 A3009 RMK AO2 SLP217 T00111033 10044 21006 53003
Loading
Personal Weather Stations






























Interactive Weather Map New forecast layout! Learn more

10-Day Weather Forecast

Advertisements
Track Severe Weather on mobile